Time;durP1;ratioP1;P1;durP2;ratioP2;P2;SDS_P1;SDS_P2;PMS_P1;PMS_P2;Temp;Humidity;BMP_temperature;BMP_pressure;BME280_temperature;BME280_humidity;BME280_pressure;Samples;Min_cycle;Max_cycle;Signal;HPM_P1;HPM_P2
2021/11/22 00:02:00;;;;;;;14.55;7.32;;;;;;;7.21;90.21;100486.06;4960087;28;20039;-81
2021/11/22 00:04:25;;;;;;;12.32;6.55;;;;;;;7.14;89.79;100497.38;4974129;28;20038;-82
2021/11/22 00:06:51;;;;;;;14.88;7.43;;;;;;;7.03;90.74;100497.31;4955917;28;20038;-81
2021/11/22 00:09:17;;;;;;;17.95;8.65;;;;;;;7.01;90.91;100499.91;4988326;28;20037;-81
2021/11/22 00:11:42;;;;;;;15.38;8.50;;;;;;;7.03;91.07;100499.94;4986828;28;20058;-80
2021/11/22 00:14:07;;;;;;;13.98;7.50;;;;;;;7.00;91.24;100495.53;4970625;28;20555;-81
2021/11/22 00:16:34;;;;;;;18.17;7.15;;;;;;;6.89;91.03;100510.34;4953340;28;20394;-81
2021/11/22 00:18:59;;;;;;;16.73;7.45;;;;;;;6.86;91.79;100512.91;4971800;28;20041;-82
2021/11/22 00:21:24;;;;;;;16.85;7.47;;;;;;;6.88;91.35;100513.81;4968455;28;20090;-80
2021/11/22 00:23:50;;;;;;;14.23;8.27;;;;;;;6.76;91.63;100513.72;4988826;28;20041;-81
2021/11/22 00:26:16;;;;;;;14.32;7.80;;;;;;;6.75;91.88;100519.81;4968779;28;20089;-81
2021/11/22 00:28:41;;;;;;;13.70;7.35;;;;;;;6.76;91.84;100521.59;4970994;28;20038;-81
2021/11/22 00:31:34;;;;;;;15.05;7.60;;;;;;;6.77;92.02;100520.72;4969542;28;20413;-81
2021/11/22 00:34:06;;;;;;;13.38;7.43;;;;;;;6.75;91.42;100522.44;4968862;28;20049;-80
2021/11/22 00:37:16;;;;;;;13.13;7.43;;;;;;;6.65;91.71;100521.47;4936818;29;20055;-82
2021/11/22 00:39:42;;;;;;;16.15;8.10;;;;;;;6.55;91.76;100522.25;4964651;28;20477;-81
2021/11/22 00:42:08;;;;;;;14.77;6.85;;;;;;;6.47;92.45;100529.13;4985020;28;20070;-81
2021/11/22 00:44:36;;;;;;;14.00;7.45;;;;;;;6.45;92.57;100534.38;4981297;28;20051;-81
2021/11/22 00:47:03;;;;;;;11.63;6.95;;;;;;;6.34;92.17;100533.38;4990419;28;20046;-83
2021/11/22 00:49:28;;;;;;;17.67;9.07;;;;;;;6.29;92.68;100537.72;4967545;28;20031;-81
2021/11/22 00:51:53;;;;;;;16.30;7.97;;;;;;;6.23;92.59;100542.84;4980897;28;20049;-80
2021/11/22 00:54:18;;;;;;;18.58;8.85;;;;;;;6.19;92.77;100548.94;4987466;28;20034;-81
2021/11/22 00:56:44;;;;;;;15.55;7.47;;;;;;;6.13;92.33;100552.34;4953114;28;20042;-81
2021/11/22 00:59:10;;;;;;;16.27;7.68;;;;;;;6.11;93.00;100557.59;4987012;28;20037;-81
2021/11/22 01:01:36;;;;;;;14.57;7.70;;;;;;;6.10;92.86;100555.84;4987230;28;20054;-81
2021/11/22 01:04:02;;;;;;;16.48;7.50;;;;;;;6.15;93.12;100555.88;4986268;28;20556;-81
2021/11/22 01:06:28;;;;;;;12.48;6.88;;;;;;;6.17;93.64;100567.25;4987617;28;20048;-80
2021/11/22 01:08:53;;;;;;;16.63;8.98;;;;;;;6.19;92.93;100573.41;4985675;28;20117;-81
2021/11/22 01:11:18;;;;;;;16.80;8.68;;;;;;;6.23;93.05;100580.41;4988330;28;20041;-82
2021/11/22 01:13:44;;;;;;;16.40;8.98;;;;;;;6.31;92.80;100584.03;4981360;28;20508;-81
2021/11/22 01:16:09;;;;;;;14.60;8.18;;;;;;;6.31;92.53;100583.13;4988869;28;20034;-81
2021/11/22 01:18:34;;;;;;;14.93;7.82;;;;;;;6.37;92.20;100583.22;4967326;28;20513;-81
2021/11/22 01:21:00;;;;;;;13.27;7.45;;;;;;;6.35;91.73;100582.31;4987561;28;20035;-81
2021/11/22 01:23:25;;;;;;;12.60;7.00;;;;;;;6.33;91.84;100582.28;4985261;28;20448;-81
2021/11/22 01:25:51;;;;;;;11.85;7.32;;;;;;;6.28;91.98;100583.97;4986769;28;20038;-81
2021/11/22 01:28:16;;;;;;;13.48;6.47;;;;;;;6.18;91.49;100587.34;4969353;28;20094;-80
2021/11/22 01:30:42;;;;;;;14.07;6.63;;;;;;;6.10;91.93;100594.22;4986718;28;20066;-81
2021/11/22 01:33:08;;;;;;;11.10;6.65;;;;;;;6.06;92.25;100598.56;4986793;28;20030;-81
2021/11/22 01:35:33;;;;;;;17.73;7.65;;;;;;;6.04;92.42;100597.66;4984997;28;20030;-81
2021/11/22 01:37:59;;;;;;;15.35;8.02;;;;;;;6.05;92.71;100596.81;4987478;28;20042;-83
2021/11/22 01:40:26;;;;;;;13.43;7.22;;;;;;;6.07;92.48;100594.19;4984635;28;20058;-81
2021/11/22 01:42:53;;;;;;;14.95;7.63;;;;;;;6.12;92.31;100593.41;4970124;28;20041;-82
2021/11/22 01:45:20;;;;;;;11.68;6.80;;;;;;;6.20;92.25;100595.25;4984272;28;20505;-81
2021/11/22 01:47:46;;;;;;;17.17;8.00;;;;;;;6.22;91.91;100601.38;4987613;28;20088;-81
2021/11/22 01:50:14;;;;;;;16.73;7.15;;;;;;;6.23;91.87;100600.50;4951606;28;20038;-81
2021/11/22 01:52:39;;;;;;;14.48;7.72;;;;;;;6.23;91.45;100601.38;4979788;28;20630;-81
2021/11/22 01:55:08;;;;;;;13.13;7.32;;;;;;;6.30;91.29;100594.50;4987168;28;20068;-83
2021/11/22 01:57:34;;;;;;;15.27;8.00;;;;;;;6.36;91.41;100602.44;4966904;28;20134;-81
2021/11/22 02:00:04;;;;;;;15.85;7.32;;;;;;;6.42;90.58;100602.53;4987409;28;20049;-81
2021/11/22 02:02:39;;;;;;;10.80;6.78;;;;;;;6.33;90.78;100611.13;4965629;28;20456;-81
2021/11/22 02:05:05;;;;;;;13.77;7.40;;;;;;;6.30;90.95;100605.84;4969593;28;20041;-81
2021/11/22 02:07:30;;;;;;;16.33;8.02;;;;;;;6.24;90.96;100612.78;4983977;28;20043;-81
2021/11/22 02:09:56;;;;;;;16.77;8.02;;;;;;;6.30;90.81;100612.84;4987320;28;20489;-81
2021/11/22 02:12:21;;;;;;;12.43;7.10;;;;;;;6.35;90.63;100622.53;4984180;28;20089;-81
2021/11/22 02:14:47;;;;;;;13.75;7.43;;;;;;;6.43;90.64;100620.00;4983855;28;20030;-81
2021/11/22 02:17:12;;;;;;;13.30;6.82;;;;;;;6.43;90.19;100612.13;4986402;28;20529;-77
2021/11/22 02:19:39;;;;;;;13.38;7.70;;;;;;;6.36;90.36;100623.41;4965461;28;20042;-78
2021/11/22 02:22:05;;;;;;;14.77;7.82;;;;;;;6.34;90.30;100627.72;4950996;28;20031;-77
2021/11/22 02:24:31;;;;;;;14.60;8.52;;;;;;;6.41;90.13;100616.47;4982965;28;20072;-78
2021/11/22 02:26:56;;;;;;;13.52;7.55;;;;;;;6.43;89.99;100614.75;4983212;28;20027;-77
2021/11/22 02:29:22;;;;;;;13.77;7.57;;;;;;;6.53;89.75;100613.13;4966715;28;20049;-78
2021/11/22 02:31:48;;;;;;;14.75;7.68;;;;;;;6.57;89.46;100612.28;4982568;28;20034;-77
2021/11/22 02:34:13;;;;;;;15.68;7.75;;;;;;;6.67;89.42;100623.78;4984153;28;20039;-77
2021/11/22 02:36:39;;;;;;;14.68;7.80;;;;;;;6.58;88.67;100625.44;4981985;28;20042;-77
2021/11/22 02:39:06;;;;;;;17.05;9.13;;;;;;;6.63;89.06;100638.59;4984777;28;20046;-77
2021/11/22 02:41:34;;;;;;;12.48;7.70;;;;;;;6.60;88.74;100638.53;4948202;28;20042;-77
2021/11/22 02:44:00;;;;;;;11.02;7.75;;;;;;;6.66;88.95;100635.13;4977453;28;20410;-77
2021/11/22 02:46:26;;;;;;;13.20;8.20;;;;;;;6.68;88.48;100643.88;4977644;28;20039;-77
2021/11/22 02:48:51;;;;;;;14.77;8.77;;;;;;;6.55;88.92;100646.38;4985087;28;20393;-77
2021/11/22 02:51:17;;;;;;;16.63;8.35;;;;;;;6.48;89.05;100656.75;4981899;28;20026;-77
2021/11/22 02:53:42;;;;;;;19.98;8.90;;;;;;;6.50;88.83;100657.66;4983547;28;20485;-78
2021/11/22 02:56:09;;;;;;;17.63;9.02;;;;;;;6.58;89.20;100661.25;4982429;28;20045;-78
2021/11/22 02:58:37;;;;;;;15.60;8.40;;;;;;;6.55;88.74;100659.50;4983433;28;20046;-77
2021/11/22 03:01:06;;;;;;;18.50;8.52;;;;;;;6.43;89.42;100668.94;4982599;28;20042;-78
2021/11/22 03:03:33;;;;;;;20.65;10.73;;;;;;;6.40;89.58;100672.41;4983406;28;20043;-77
2021/11/22 03:06:08;;;;;;;20.08;9.07;;;;;;;6.46;89.47;100676.84;4982798;28;20074;-78
2021/11/22 03:08:35;;;;;;;13.60;8.70;;;;;;;6.47;89.54;100671.63;4984324;28;20551;-77
2021/11/22 03:11:01;;;;;;;16.58;8.75;;;;;;;6.43;89.31;100677.66;4981860;28;20058;-77
2021/11/22 03:13:26;;;;;;;13.80;8.63;;;;;;;6.36;89.63;100678.44;4934290;28;20112;-77
2021/11/22 03:15:52;;;;;;;16.92;9.45;;;;;;;6.31;89.83;100673.16;4984301;28;20037;-77
2021/11/22 03:18:17;;;;;;;16.63;8.63;;;;;;;6.29;90.08;100695.84;4987253;28;20038;-77
2021/11/22 03:20:42;;;;;;;15.75;8.82;;;;;;;6.25;90.76;100694.03;4986910;28;20045;-77
2021/11/22 03:23:08;;;;;;;16.17;9.65;;;;;;;6.24;90.71;100694.91;4985985;28;20044;-78
2021/11/22 03:25:33;;;;;;;15.63;9.80;;;;;;;6.37;90.30;100685.47;4982922;28;20057;-78
2021/11/22 03:27:59;;;;;;;15.95;10.05;;;;;;;6.50;89.82;100683.91;4987764;28;20041;-77
2021/11/22 03:30:24;;;;;;;13.93;8.57;;;;;;;6.67;90.12;100681.47;4984950;28;20043;-78
2021/11/22 03:32:49;;;;;;;16.10;9.38;;;;;;;6.82;89.20;100679.03;4988283;28;20042;-78
2021/11/22 03:35:15;;;;;;;14.80;9.82;;;;;;;6.96;89.32;100689.66;4984552;28;20038;-77
2021/11/22 03:37:42;;;;;;;15.82;9.45;;;;;;;7.02;88.38;100690.63;4988199;28;20045;-78
2021/11/22 03:40:10;;;;;;;15.27;9.50;;;;;;;7.11;88.47;100691.59;4985075;28;20074;-77
2021/11/22 03:42:39;;;;;;;13.73;8.98;;;;;;;7.11;87.83;100694.22;4985485;28;20034;-77
2021/11/22 03:45:08;;;;;;;14.95;9.10;;;;;;;7.21;87.84;100699.56;4970233;28;20039;-77
2021/11/22 03:47:34;;;;;;;15.45;8.52;;;;;;;7.17;87.26;100705.63;4983311;28;20042;-77
2021/11/22 03:49:59;;;;;;;13.93;8.05;;;;;;;6.96;86.74;100708.91;4984976;28;20035;-78
2021/11/22 03:52:25;;;;;;;14.65;9.25;;;;;;;6.76;87.38;100721.81;4938337;28;20100;-77
2021/11/22 03:54:50;;;;;;;21.08;10.38;;;;;;;6.68;88.24;100727.81;4985178;28;20022;-77
2021/11/22 03:57:15;;;;;;;14.60;8.70;;;;;;;6.62;88.13;100725.13;4986183;28;20046;-77
2021/11/22 03:59:41;;;;;;;13.23;8.73;;;;;;;6.51;89.12;100735.47;4986199;28;20375;-77
2021/11/22 04:02:06;;;;;;;14.25;8.20;;;;;;;6.45;89.26;100738.88;4985674;28;20037;-77
2021/11/22 04:04:31;;;;;;;16.88;9.73;;;;;;;6.40;89.40;100737.06;4986279;28;20161;-78
2021/11/22 04:06:57;;;;;;;19.52;11.38;;;;;;;6.28;90.32;100728.13;4951586;28;20051;-77
2021/11/22 04:09:22;;;;;;;15.82;8.50;;;;;;;6.35;89.99;100739.59;4987603;28;20042;-77
2021/11/22 04:11:48;;;;;;;15.35;8.23;;;;;;;6.30;89.85;100741.28;4984000;28;20031;-77
2021/11/22 04:14:13;;;;;;;15.25;9.10;;;;;;;6.23;89.73;100745.53;4987003;28;20076;-77
2021/11/22 04:16:38;;;;;;;16.25;10.30;;;;;;;6.20;90.40;100753.38;4966681;28;20046;-77
2021/11/22 04:19:05;;;;;;;13.45;8.18;;;;;;;6.23;90.52;100757.78;4986457;28;20034;-77
2021/11/22 04:21:30;;;;;;;16.60;10.07;;;;;;;6.26;90.41;100763.06;4984714;28;20100;-77
2021/11/22 04:23:57;;;;;;;16.73;9.43;;;;;;;6.26;90.60;100763.06;4985391;28;20496;-77
2021/11/22 04:26:23;;;;;;;21.38;10.75;;;;;;;6.30;90.73;100767.50;4984825;28;20421;-77
2021/11/22 04:28:48;;;;;;;18.63;10.60;;;;;;;6.30;90.12;100773.63;4985503;28;20113;-77
2021/11/22 04:31:15;;;;;;;22.05;9.80;;;;;;;6.35;90.07;100784.19;4985678;28;20046;-77
2021/11/22 04:33:40;;;;;;;19.67;9.85;;;;;;;6.40;90.21;100782.50;4984221;28;20513;-77
2021/11/22 04:36:07;;;;;;;15.82;9.20;;;;;;;6.37;89.73;100785.09;4986405;28;20065;-77
2021/11/22 04:38:33;;;;;;;19.20;9.88;;;;;;;6.36;89.75;100788.53;4965136;28;20046;-78
2021/11/22 04:40:59;;;;;;;16.23;9.02;;;;;;;6.38;89.96;100793.81;4984253;28;20035;-77
2021/11/22 04:43:24;;;;;;;15.02;9.45;;;;;;;6.42;89.50;100801.78;4966190;28;20043;-77
2021/11/22 04:45:49;;;;;;;18.42;10.73;;;;;;;6.40;89.32;100803.47;4986860;28;20027;-77
2021/11/22 04:48:15;;;;;;;17.65;9.90;;;;;;;6.49;89.56;100803.59;4974339;28;20030;-77
2021/11/22 04:50:40;;;;;;;17.92;9.93;;;;;;;6.58;89.19;100805.50;4986092;28;20448;-77
2021/11/22 04:53:06;;;;;;;17.23;10.10;;;;;;;6.59;89.05;100808.13;4983794;28;20050;-77
2021/11/22 04:55:33;;;;;;;17.83;9.82;;;;;;;6.54;88.55;100822.03;4968193;28;20473;-77
2021/11/22 04:57:59;;;;;;;15.75;9.60;;;;;;;6.54;88.87;100817.66;4984370;28;20504;-77
2021/11/22 05:00:25;;;;;;;20.55;10.25;;;;;;;6.51;88.86;100820.25;4984838;28;20038;-77
2021/11/22 05:02:51;;;;;;;16.38;9.45;;;;;;;6.48;88.72;100820.19;4984586;28;20726;-77
2021/11/22 05:05:18;;;;;;;16.45;9.45;;;;;;;6.42;88.44;100828.00;4984061;28;20043;-77
2021/11/22 05:07:45;;;;;;;15.32;8.35;;;;;;;6.45;88.77;100830.66;4984671;28;20103;-77
2021/11/22 05:10:11;;;;;;;19.45;10.63;;;;;;;6.40;88.66;100834.06;4963855;28;20121;-77
2021/11/22 05:12:37;;;;;;;18.05;11.57;;;;;;;6.42;88.55;100838.47;4951339;28;20061;-77
2021/11/22 05:15:04;;;;;;;16.75;8.85;;;;;;;6.44;88.64;100839.34;4981584;28;20054;-77
2021/11/22 05:17:30;;;;;;;17.65;9.57;;;;;;;6.40;88.50;100852.41;4985535;28;20039;-77
2021/11/22 05:19:55;;;;;;;17.95;9.57;;;;;;;6.44;87.93;100851.59;4982176;28;20057;-77
2021/11/22 05:22:21;;;;;;;15.20;8.30;;;;;;;6.35;88.32;100836.59;4982184;28;20034;-77
2021/11/22 05:24:51;;;;;;;17.15;10.15;;;;;;;6.36;88.57;100844.47;4978177;28;20466;-77
2021/11/22 05:27:23;;;;;;;13.60;8.30;;;;;;;6.44;88.56;100847.22;4978864;28;20075;-77
2021/11/22 05:29:49;;;;;;;12.43;7.88;;;;;;;6.49;88.35;100842.94;4979316;28;20523;-77
2021/11/22 05:32:16;;;;;;;12.48;7.18;;;;;;;6.51;87.38;100856.97;4968199;28;20045;-77
2021/11/22 05:34:49;;;;;;;13.65;7.43;;;;;;;6.52;87.21;100861.38;4982038;28;20034;-77
2021/11/22 05:37:15;;;;;;;13.77;7.50;;;;;;;6.56;87.87;100873.66;4985140;28;20050;-77
2021/11/22 05:39:42;;;;;;;13.15;8.30;;;;;;;6.55;87.57;100876.25;4981626;28;20094;-77
2021/11/22 05:42:07;;;;;;;16.15;9.10;;;;;;;6.55;87.43;100879.75;4985290;28;20194;-77
2021/11/22 05:44:35;;;;;;;17.83;9.00;;;;;;;6.55;87.44;100877.13;4981515;28;20031;-77
2021/11/22 05:47:06;;;;;;;13.88;7.47;;;;;;;6.54;87.07;100884.97;4978249;28;20042;-77
2021/11/22 05:49:33;;;;;;;11.90;7.88;;;;;;;6.48;86.97;100885.75;4974556;28;20038;-77
2021/11/22 05:51:59;;;;;;;14.25;7.47;;;;;;;6.47;87.74;100899.75;4967781;28;20496;-77
2021/11/22 05:54:25;;;;;;;14.93;8.93;;;;;;;6.39;87.27;100893.47;4981486;28;20387;-77
2021/11/22 05:56:51;;;;;;;17.30;8.70;;;;;;;6.34;86.97;100910.84;4977795;28;20045;-77
2021/11/22 05:59:18;;;;;;;11.90;8.73;;;;;;;6.31;87.66;100908.19;4984890;28;20034;-77
2021/11/22 06:01:43;;;;;;;11.60;7.78;;;;;;;6.40;86.29;100912.72;4982060;28;20039;-78
2021/11/22 06:04:09;;;;;;;10.15;6.22;;;;;;;6.43;85.66;100918.88;4983793;28;20035;-77
2021/11/22 06:06:34;;;;;;;9.82;6.00;;;;;;;6.35;84.63;100921.38;4982784;28;20489;-77
2021/11/22 06:08:59;;;;;;;11.45;7.15;;;;;;;6.34;85.14;100930.09;4983484;28;20647;-77
2021/11/22 06:11:26;;;;;;;11.80;7.05;;;;;;;6.33;85.32;100930.94;4983404;28;20425;-77
2021/11/22 06:13:51;;;;;;;10.63;6.30;;;;;;;6.32;85.29;100929.19;4933769;28;20621;-77
2021/11/22 06:16:16;;;;;;;9.68;6.78;;;;;;;6.28;85.86;100929.09;4966417;28;20120;-77
2021/11/22 06:18:42;;;;;;;12.32;7.88;;;;;;;6.20;85.92;100930.69;4981978;28;20550;-77
2021/11/22 06:21:07;;;;;;;13.73;7.78;;;;;;;6.20;86.72;100930.69;4984714;28;20042;-77
2021/11/22 06:23:32;;;;;;;12.18;8.25;;;;;;;6.23;86.25;100936.88;4963695;28;20039;-77
2021/11/22 06:25:58;;;;;;;12.32;7.43;;;;;;;6.26;86.57;100934.34;4984920;28;20089;-77
2021/11/22 06:28:23;;;;;;;12.55;8.27;;;;;;;6.30;86.21;100945.75;4963846;28;20038;-77
2021/11/22 06:30:48;;;;;;;13.63;9.30;;;;;;;6.28;86.66;100948.31;4984218;28;20120;-77
2021/11/22 06:33:14;;;;;;;11.07;7.63;;;;;;;6.36;86.57;100953.72;4981760;28;20043;-77
2021/11/22 06:35:39;;;;;;;10.50;7.72;;;;;;;6.43;86.20;100965.19;4983362;28;20031;-77
2021/11/22 06:38:05;;;;;;;12.90;8.20;;;;;;;6.40;86.11;100965.16;4982741;28;20042;-77
2021/11/22 06:40:31;;;;;;;12.40;8.43;;;;;;;6.36;86.34;100969.44;4982517;28;20034;-77
2021/11/22 06:42:56;;;;;;;12.50;8.52;;;;;;;6.30;86.63;100969.34;4983218;28;20042;-77
2021/11/22 06:45:21;;;;;;;13.60;8.70;;;;;;;6.40;86.36;100979.13;4981595;28;20078;-77
2021/11/22 06:47:47;;;;;;;13.68;8.43;;;;;;;6.44;86.29;100987.94;4966520;28;20030;-77
2021/11/22 06:50:13;;;;;;;15.43;9.32;;;;;;;6.47;85.57;100996.75;4947982;28;20069;-77
2021/11/22 06:52:38;;;;;;;14.90;8.95;;;;;;;6.53;86.22;100988.97;4984104;28;20424;-77
2021/11/22 06:55:05;;;;;;;13.40;8.98;;;;;;;6.59;85.08;100983.84;4976644;28;20083;-77
2021/11/22 06:57:30;;;;;;;12.02;8.85;;;;;;;6.61;85.41;100997.00;4984408;28;20397;-77
2021/11/22 06:59:56;;;;;;;13.02;9.40;;;;;;;6.66;85.47;101000.56;4981503;28;20042;-77
2021/11/22 07:02:24;;;;;;;14.40;10.20;;;;;;;6.56;85.59;101004.75;4983309;28;20046;-77
2021/11/22 07:04:50;;;;;;;13.20;9.68;;;;;;;6.48;86.00;101008.13;4981255;28;20042;-77
2021/11/22 07:07:15;;;;;;;15.82;9.45;;;;;;;6.48;86.48;101014.25;4983424;28;20045;-77
2021/11/22 07:09:41;;;;;;;18.00;9.95;;;;;;;6.52;85.84;101018.69;4982157;28;20073;-77
2021/11/22 07:12:07;;;;;;;16.08;9.63;;;;;;;6.41;86.62;101028.09;4982526;28;20512;-77
2021/11/22 07:14:35;;;;;;;18.48;10.13;;;;;;;6.34;86.87;101028.81;4982180;28;20041;-77
2021/11/22 07:17:01;;;;;;;16.80;10.65;;;;;;;6.38;86.67;101040.25;4982467;28;20053;-77
2021/11/22 07:19:26;;;;;;;15.80;10.48;;;;;;;6.35;86.95;101038.47;4983012;28;20030;-77
2021/11/22 07:21:53;;;;;;;15.38;10.88;;;;;;;6.34;87.29;101049.78;4981586;28;20083;-77
2021/11/22 07:24:19;;;;;;;14.95;10.63;;;;;;;6.39;86.29;101048.13;4983295;28;20070;-77
2021/11/22 07:26:45;;;;;;;18.35;12.48;;;;;;;6.36;87.19;101043.72;4981364;28;20053;-77
2021/11/22 07:29:10;;;;;;;16.83;10.82;;;;;;;6.38;86.92;101056.88;4966749;28;20042;-77
2021/11/22 07:31:36;;;;;;;17.17;11.55;;;;;;;6.41;87.11;101059.53;4963374;28;20026;-77
2021/11/22 07:34:02;;;;;;;15.63;10.70;;;;;;;6.47;86.45;101061.41;4966464;28;20061;-77
2021/11/22 07:36:27;;;;;;;15.57;10.40;;;;;;;6.41;86.32;101061.28;4980876;28;20035;-77
2021/11/22 07:38:53;;;;;;;16.83;10.02;;;;;;;6.42;86.55;101069.19;4983736;28;20069;-77
2021/11/22 07:41:19;;;;;;;15.48;10.40;;;;;;;6.43;85.76;101070.06;4981802;28;20125;-77
2021/11/22 07:43:45;;;;;;;16.13;10.70;;;;;;;6.39;86.40;101068.22;4982611;28;20047;-77
2021/11/22 07:46:10;;;;;;;16.48;10.02;;;;;;;6.44;86.77;101082.31;4964881;28;20043;-77
2021/11/22 07:48:35;;;;;;;15.23;10.10;;;;;;;6.38;85.78;101082.22;4982328;28;20074;-77
2021/11/22 07:51:02;;;;;;;16.55;11.52;;;;;;;6.36;85.50;101076.91;4965172;28;20035;-77
2021/11/22 07:53:28;;;;;;;17.17;10.23;;;;;;;6.39;86.23;101083.97;4964636;28;20413;-77
2021/11/22 07:55:54;;;;;;;14.00;9.95;;;;;;;6.40;85.42;101086.63;4989307;28;20038;-77
2021/11/22 07:58:19;;;;;;;14.43;9.13;;;;;;;6.40;85.45;101086.63;4987967;28;20035;-77
2021/11/22 08:00:45;;;;;;;14.60;10.25;;;;;;;6.40;85.53;101091.00;4986909;28;20030;-77
2021/11/22 08:03:11;;;;;;;14.60;9.95;;;;;;;6.42;85.50;101098.03;4983831;28;20038;-77
2021/11/22 08:05:36;;;;;;;15.07;8.80;;;;;;;6.59;85.32;101100.97;4931340;29;20043;-77
2021/11/22 08:08:03;;;;;;;15.80;9.60;;;;;;;6.45;85.14;101102.47;4983522;28;20030;-77
2021/11/22 08:10:29;;;;;;;14.02;10.05;;;;;;;6.49;85.67;101105.16;4986881;28;20053;-77
2021/11/22 08:13:00;;;;;;;15.15;10.48;;;;;;;6.49;85.92;101117.38;4966761;28;20089;-77
2021/11/22 08:15:27;;;;;;;12.63;8.70;;;;;;;6.54;84.94;101114.00;4986950;28;20045;-77
2021/11/22 08:17:54;;;;;;;13.32;9.27;;;;;;;6.43;85.00;101118.16;4984270;28;20062;-77
2021/11/22 08:20:22;;;;;;;13.00;8.50;;;;;;;6.53;84.28;101122.72;4988764;28;20047;-81
2021/11/22 08:22:49;;;;;;;11.85;8.40;;;;;;;6.54;85.69;101126.22;4956132;28;20037;-81
2021/11/22 08:25:16;;;;;;;14.70;8.70;;;;;;;6.58;83.62;101134.19;4986830;28;20043;-81
2021/11/22 08:27:43;;;;;;;14.20;9.10;;;;;;;6.63;83.75;101141.25;4988872;28;20038;-80
2021/11/22 08:30:12;;;;;;;12.60;9.13;;;;;;;6.55;84.27;101135.88;4986635;28;20382;-81
2021/11/22 08:32:39;;;;;;;11.88;8.18;;;;;;;6.53;84.31;101155.94;4986207;28;20037;-81
2021/11/22 08:35:05;;;;;;;12.88;8.52;;;;;;;6.51;84.63;101148.03;4961131;28;20038;-81
2021/11/22 08:37:31;;;;;;;12.55;8.63;;;;;;;6.55;84.96;101152.50;4970113;28;20080;-82
2021/11/22 08:39:56;;;;;;;13.07;8.80;;;;;;;6.60;83.93;101157.81;4987542;28;20038;-81
2021/11/22 08:42:22;;;;;;;12.85;9.02;;;;;;;6.63;83.39;101168.38;4970406;28;20038;-80
2021/11/22 08:44:49;;;;;;;14.65;8.50;;;;;;;6.70;83.61;101174.63;4986709;28;20043;-81
2021/11/22 08:47:15;;;;;;;11.30;7.72;;;;;;;6.76;83.26;101175.66;4987882;28;20141;-81
2021/11/22 08:49:42;;;;;;;11.32;7.95;;;;;;;6.74;83.61;101179.97;4986341;28;20077;-80
2021/11/22 08:52:09;;;;;;;13.00;7.65;;;;;;;6.87;83.13;101183.72;4970975;28;20050;-81
2021/11/22 08:54:34;;;;;;;14.07;7.93;;;;;;;6.82;82.73;101189.75;4952779;28;20031;-81
2021/11/22 08:57:00;;;;;;;10.32;7.35;;;;;;;6.89;82.50;101186.34;4971134;28;20584;-81
2021/11/22 08:59:25;;;;;;;10.38;6.53;;;;;;;6.82;82.34;101193.25;4985236;28;20066;-81
2021/11/22 09:01:50;;;;;;;8.02;5.95;;;;;;;6.86;82.60;101192.44;4948873;29;20043;-81
2021/11/22 09:04:16;;;;;;;11.13;6.95;;;;;;;6.78;82.93;101200.16;4988045;28;20040;-81
2021/11/22 09:06:41;;;;;;;8.43;6.22;;;;;;;6.85;82.82;101210.78;4968177;28;20049;-82
2021/11/22 09:09:08;;;;;;;10.57;6.40;;;;;;;6.96;83.05;101209.25;4965427;28;20043;-80
2021/11/22 09:11:36;;;;;;;9.52;5.63;;;;;;;6.97;81.90;101217.16;4966691;28;20042;-81
2021/11/22 09:14:02;;;;;;;8.45;5.93;;;;;;;6.87;82.49;101220.47;4944247;28;20505;-81
2021/11/22 09:16:28;;;;;;;8.63;6.07;;;;;;;6.93;80.76;101223.19;4970577;28;20045;-81
2021/11/22 09:18:58;;;;;;;9.75;5.78;;;;;;;6.92;81.78;101223.19;4986099;28;20042;-82
2021/11/22 09:21:24;;;;;;;11.05;5.18;;;;;;;7.06;81.15;101231.31;4986722;28;20043;-81
2021/11/22 09:23:50;;;;;;;9.88;5.75;;;;;;;7.04;81.47;101226.03;4969014;28;20116;-81
2021/11/22 09:26:17;;;;;;;11.40;6.45;;;;;;;6.91;81.03;101232.78;4937245;28;20038;-81
2021/11/22 09:28:43;;;;;;;11.70;6.18;;;;;;;6.96;80.41;101239.00;4969449;28;20073;-81
2021/11/22 09:31:09;;;;;;;11.05;7.32;;;;;;;7.09;81.19;101231.38;4968540;28;20031;-80
2021/11/22 09:33:34;;;;;;;10.23;6.13;;;;;;;7.17;79.88;101233.28;4984864;28;20553;-81
2021/11/22 09:35:59;;;;;;;9.50;6.57;;;;;;;7.19;79.30;101236.81;4987709;28;20093;-81
2021/11/22 09:38:25;;;;;;;9.20;6.25;;;;;;;7.24;78.23;101236.91;4951557;28;20090;-81
2021/11/22 09:40:50;;;;;;;8.98;6.40;;;;;;;7.30;78.84;101236.13;4970982;28;20038;-81
2021/11/22 09:43:16;;;;;;;9.32;6.13;;;;;;;7.32;78.74;101242.31;4966979;28;20081;-82
2021/11/22 09:45:41;;;;;;;8.35;6.00;;;;;;;7.36;78.67;101246.75;4987324;28;20081;-81
2021/11/22 09:48:07;;;;;;;8.35;5.93;;;;;;;7.36;78.59;101245.03;4965419;28;20117;-81
2021/11/22 09:50:33;;;;;;;6.38;5.10;;;;;;;7.23;77.57;101246.53;4986799;28;20113;-83
2021/11/22 09:52:59;;;;;;;7.93;5.57;;;;;;;7.12;78.00;101253.31;4967767;28;20073;-80
2021/11/22 09:55:29;;;;;;;8.77;5.13;;;;;;;7.08;79.33;101251.50;4953285;28;20031;-82
2021/11/22 09:57:55;;;;;;;8.43;4.95;;;;;;;7.17;78.50;101245.53;4985155;28;20046;-82
2021/11/22 10:00:20;;;;;;;5.93;4.10;;;;;;;7.22;78.24;101249.13;4985866;28;20047;-81
2021/11/22 10:02:51;;;;;;;8.77;4.72;;;;;;;7.08;79.15;101253.25;4985810;28;20049;-81
2021/11/22 10:05:20;;;;;;;6.75;4.20;;;;;;;7.06;79.58;101253.19;4985345;28;20114;-81
2021/11/22 10:07:58;;;;;;;6.90;3.65;;;;;;;7.01;78.64;101258.34;4984955;28;20550;-81
2021/11/22 10:10:24;;;;;;;6.53;3.63;;;;;;;6.88;79.74;101264.19;4947187;29;20078;-81
2021/11/22 10:12:50;;;;;;;5.35;3.13;;;;;;;6.98;79.84;101266.16;4969285;28;20030;-80
2021/11/22 10:15:16;;;;;;;5.40;3.03;;;;;;;7.12;78.70;101268.19;4984779;28;20038;-80
2021/11/22 10:17:43;;;;;;;7.78;3.20;;;;;;;7.03;78.16;101264.53;4953057;28;20039;-81
2021/11/22 10:20:15;;;;;;;6.32;3.00;;;;;;;7.02;77.95;101268.00;4984783;28;20053;-81
2021/11/22 10:23:01;;;;;;;5.05;2.40;;;;;;;6.93;78.07;101273.06;4986273;28;20046;-79
2021/11/22 10:25:36;;;;;;;4.72;2.42;;;;;;;7.05;77.12;101268.91;4982680;28;20035;-81
2021/11/22 10:28:04;;;;;;;5.00;2.65;;;;;;;7.06;77.65;101275.94;4984501;28;20054;-82
2021/11/22 10:30:33;;;;;;;4.75;2.63;;;;;;;7.17;77.46;101277.03;4985992;28;20445;-81
2021/11/22 10:33:02;;;;;;;5.53;2.65;;;;;;;7.36;77.07;101276.53;4984144;28;20480;-81
2021/11/22 10:35:29;;;;;;;6.95;2.40;;;;;;;7.36;75.53;101278.25;4968395;28;20049;-83
2021/11/22 10:38:19;;;;;;;3.30;2.25;;;;;;;7.31;75.12;101283.44;4984508;28;20034;-81
2021/11/22 10:40:48;;;;;;;6.07;3.00;;;;;;;7.40;74.53;101287.97;4949552;28;20051;-81
2021/11/22 10:43:14;;;;;;;5.13;2.67;;;;;;;7.37;74.41;101290.56;4968037;28;20263;-81
2021/11/22 10:45:43;;;;;;;3.95;2.20;;;;;;;7.42;74.55;101284.53;4968062;28;20042;-81
2021/11/22 10:48:27;;;;;;;5.40;2.47;;;;;;;7.62;73.86;101286.63;4968323;28;20477;-81
2021/11/22 10:51:13;;;;;;;4.78;1.60;;;;;;;7.54;71.99;101282.97;4979407;28;20027;-81
2021/11/22 10:53:40;;;;;;;2.55;1.17;;;;;;;7.46;72.70;101286.34;4980990;28;20466;-80
2021/11/22 10:56:10;;;;;;;3.40;1.30;;;;;;;7.47;72.66;101288.13;4984769;28;20026;-81
2021/11/22 10:58:45;;;;;;;1.95;0.93;;;;;;;7.45;70.50;101291.56;4965221;28;20039;-81
2021/11/22 11:01:22;;;;;;;3.13;1.10;;;;;;;7.47;71.10;101293.38;4983767;28;20106;-81
2021/11/22 11:03:52;;;;;;;3.78;1.27;;;;;;;7.47;70.92;101297.75;4960312;28;20429;-81
2021/11/22 11:06:17;;;;;;;3.92;0.93;;;;;;;7.45;71.85;101304.72;4986312;28;20515;-81
2021/11/22 11:08:43;;;;;;;2.97;0.93;;;;;;;7.54;70.40;101304.00;4983411;28;20121;-81
2021/11/22 11:11:13;;;;;;;1.80;0.88;;;;;;;7.62;70.80;101302.38;4969344;28;20038;-81
2021/11/22 11:13:50;;;;;;;5.35;0.80;;;;;;;7.78;69.82;101299.19;4935830;28;20031;-81
2021/11/22 11:16:17;;;;;;;1.63;0.80;;;;;;;7.82;70.27;101306.25;4985648;28;20042;-80
2021/11/22 11:19:04;;;;;;;2.30;0.77;;;;;;;7.77;70.86;101304.41;4951469;28;20071;-81
2021/11/22 11:21:36;;;;;;;2.97;0.80;;;;;;;8.06;70.60;101302.28;4979349;28;20035;-80
2021/11/22 11:24:03;;;;;;;1.83;0.50;;;;;;;8.10;68.11;101306.75;4946571;28;20035;-81
2021/11/22 11:26:28;;;;;;;1.73;0.57;;;;;;;8.03;68.70;101302.22;4982235;28;20049;-82